createdAt,value
2023-04-13T00:00:25.043Z,16.97
2023-04-13T00:02:56.140Z,18.80
2023-04-13T00:05:24.825Z,14.13
2023-04-13T00:07:53.194Z,17.70
2023-04-13T00:10:23.924Z,21.03
2023-04-13T00:12:51.927Z,16.90
2023-04-13T00:15:20.206Z,16.57
2023-04-13T00:18:08.827Z,16.57
2023-04-13T00:20:36.848Z,15.37
2023-04-13T00:23:04.646Z,14.13
2023-04-13T00:25:33.849Z,12.53
2023-04-13T00:28:03.378Z,14.60
2023-04-13T00:30:31.413Z,14.33
2023-04-13T00:32:59.291Z,14.40
2023-04-13T00:35:27.791Z,17.43
2023-04-13T00:37:55.547Z,13.00
2023-04-13T00:40:24.514Z,17.07
2023-04-13T00:42:53.561Z,13.77
2023-04-13T00:45:21.552Z,16.90
2023-04-13T00:47:51.871Z,11.00
2023-04-13T00:50:21.567Z,11.20
2023-04-13T00:52:49.871Z,11.50
2023-04-13T00:55:21.342Z,11.60
2023-04-13T00:57:52.486Z,11.40
2023-04-13T01:00:24.522Z,12.03
2023-04-13T01:02:52.641Z,12.33
2023-04-13T01:05:21.403Z,12.10
2023-04-13T01:08:00.382Z,10.03
2023-04-13T01:10:32.994Z,14.63
2023-04-13T01:13:07.720Z,8.07
2023-04-13T01:15:39.060Z,8.77
2023-04-13T01:18:10.010Z,8.57
2023-04-13T01:20:40.319Z,11.80
2023-04-13T01:23:10.251Z,14.53
2023-04-13T01:25:41.968Z,9.00
2023-04-13T01:28:15.845Z,7.97
2023-04-13T01:30:44.600Z,11.33
2023-04-13T01:33:13.848Z,7.93
2023-04-13T01:35:42.122Z,7.73
2023-04-13T01:38:10.117Z,10.13
2023-04-13T01:40:41.317Z,10.57
2023-04-13T01:43:09.168Z,10.03
2023-04-13T01:45:47.061Z,8.00
2023-04-13T01:48:29.057Z,8.67
2023-04-13T01:51:00.388Z,7.10
2023-04-13T01:53:31.613Z,8.90
2023-04-13T01:56:00.918Z,7.60
2023-04-13T01:58:33.508Z,8.33
2023-04-13T02:01:06.168Z,6.30
2023-04-13T02:03:34.366Z,7.07
2023-04-13T02:06:02.878Z,6.63
2023-04-13T02:08:32.518Z,7.27
2023-04-13T02:11:01.991Z,7.27
2023-04-13T02:13:30.348Z,7.07
2023-04-13T02:15:59.612Z,8.37
2023-04-13T02:18:28.673Z,6.50
2023-04-13T02:21:03.029Z,6.83
2023-04-13T02:23:32.098Z,6.20
2023-04-13T02:25:59.849Z,6.80
2023-04-13T02:28:27.646Z,6.17
2023-04-13T02:30:55.712Z,5.70
2023-04-13T02:33:24.001Z,6.30
2023-04-13T02:35:53.081Z,6.20
2023-04-13T02:38:20.812Z,6.90
2023-04-13T02:40:49.334Z,6.17
2023-04-13T02:43:17.600Z,6.10
2023-04-13T02:45:45.307Z,6.03
2023-04-13T02:48:13.090Z,6.33
2023-04-13T02:50:40.892Z,5.30
2023-04-13T02:53:10.002Z,6.50
2023-04-13T02:55:37.715Z,6.03
2023-04-13T02:58:06.187Z,6.20
2023-04-13T03:00:34.555Z,6.23
2023-04-13T03:03:03.468Z,6.30
2023-04-13T03:05:32.159Z,5.50
2023-04-13T03:08:00.177Z,6.30
2023-04-13T03:10:31.270Z,7.60
2023-04-13T03:12:59.051Z,5.97
2023-04-13T03:15:26.798Z,12.90
2023-04-13T03:17:54.630Z,8.93
2023-04-13T03:20:23.699Z,8.23
2023-04-13T03:22:53.447Z,7.17
2023-04-13T03:25:21.306Z,5.90
2023-04-13T03:27:50.579Z,5.77
2023-04-13T03:30:18.934Z,10.60
2023-04-13T03:32:46.757Z,9.10
2023-04-13T03:35:14.686Z,5.67
2023-04-13T03:37:43.495Z,6.40
2023-04-13T03:40:12.106Z,6.60
2023-04-13T03:42:40.844Z,8.33
2023-04-13T03:45:11.096Z,6.03
2023-04-13T03:47:39.981Z,5.87
2023-04-13T03:50:08.810Z,6.43
2023-04-13T03:52:36.616Z,10.53
2023-04-13T03:55:04.626Z,7.33
2023-04-13T03:57:32.590Z,6.35
2023-04-13T04:00:00.509Z,7.33
2023-04-13T04:02:29.778Z,6.77
2023-04-13T04:04:57.626Z,5.73
2023-04-13T04:07:25.424Z,7.10
2023-04-13T04:09:53.124Z,7.90
2023-04-13T04:12:20.841Z,5.90
2023-04-13T04:14:48.535Z,7.63
2023-04-13T04:17:16.330Z,10.00
2023-04-13T04:19:45.456Z,7.20
2023-04-13T04:22:14.011Z,6.40
2023-04-13T04:24:42.296Z,6.60
2023-04-13T04:27:10.132Z,5.80
2023-04-13T04:29:38.145Z,6.70
2023-04-13T04:32:10.755Z,6.20
2023-04-13T04:34:38.865Z,5.50
2023-04-13T04:37:19.616Z,6.07
2023-04-13T04:39:48.330Z,6.33
2023-04-13T04:42:18.671Z,8.20
2023-04-13T04:44:49.680Z,8.53
2023-04-13T04:47:18.403Z,6.67
2023-04-13T04:49:46.235Z,6.70
2023-04-13T04:52:15.293Z,9.10
2023-04-13T04:54:43.002Z,11.17
2023-04-13T04:57:12.236Z,8.10
2023-04-13T04:59:40.797Z,7.00
2023-04-13T05:02:09.042Z,6.63
2023-04-13T05:04:37.348Z,5.43
2023-04-13T05:07:05.502Z,6.43
2023-04-13T05:09:36.999Z,5.23
2023-04-13T05:12:05.165Z,6.33
2023-04-13T05:14:32.960Z,5.40
2023-04-13T05:17:01.672Z,5.40
2023-04-13T05:19:29.437Z,5.30
2023-04-13T05:21:57.240Z,7.83
2023-04-13T05:24:24.940Z,6.73
2023-04-13T05:26:54.021Z,6.57
2023-04-13T05:29:21.773Z,8.73
2023-04-13T05:31:49.528Z,6.60
2023-04-13T05:34:17.369Z,5.83
2023-04-13T05:36:45.207Z,6.23
2023-04-13T05:39:12.989Z,6.60
2023-04-13T05:41:40.725Z,7.73
2023-04-13T05:44:09.767Z,9.50
2023-04-13T05:46:37.576Z,6.30
2023-04-13T05:49:05.295Z,6.90
2023-04-13T05:51:34.030Z,8.00
2023-04-13T05:54:02.575Z,5.77
2023-04-13T05:56:30.653Z,5.70
2023-04-13T05:58:58.678Z,6.40
2023-04-13T06:01:29.608Z,5.23
2023-04-13T06:03:57.631Z,7.00
2023-04-13T06:06:26.511Z,5.50
2023-04-13T06:08:54.314Z,5.93
2023-04-13T06:11:22.149Z,6.27
2023-04-13T06:13:49.933Z,5.40
2023-04-13T06:16:18.711Z,9.57
2023-04-13T06:18:47.799Z,10.00
2023-04-13T06:21:15.819Z,6.03
2023-04-13T06:23:43.590Z,7.47
2023-04-13T06:26:11.608Z,9.00
2023-04-13T06:28:39.738Z,6.23
2023-04-13T06:31:08.844Z,6.50
2023-04-13T06:33:36.870Z,6.60
2023-04-13T06:36:07.253Z,6.23
2023-04-13T06:38:35.616Z,6.30
2023-04-13T06:41:03.501Z,5.67
2023-04-13T06:43:31.474Z,6.30
2023-04-13T06:46:00.570Z,6.97
2023-04-13T06:48:28.792Z,5.63
2023-04-13T06:50:59.079Z,6.80
2023-04-13T06:53:28.192Z,6.73
2023-04-13T06:55:56.013Z,6.60
2023-04-13T06:58:23.822Z,6.10
2023-04-13T07:00:51.632Z,5.63
2023-04-13T07:03:19.499Z,6.60
2023-04-13T07:05:47.399Z,6.33
2023-04-13T07:08:15.348Z,5.20
2023-04-13T07:10:44.387Z,9.30
2023-04-13T07:13:12.129Z,6.03
2023-04-13T07:15:39.890Z,7.00
2023-04-13T07:18:07.758Z,6.30
2023-04-13T07:20:38.248Z,8.27
2023-04-13T07:23:06.179Z,10.17
2023-04-13T07:25:35.335Z,7.97
2023-04-13T07:28:04.600Z,5.47
2023-04-13T07:30:32.439Z,11.60
2023-04-13T07:33:00.241Z,12.53
2023-04-13T07:35:28.746Z,6.07
2023-04-13T07:37:56.467Z,6.93
2023-04-13T07:40:24.391Z,10.50
2023-04-13T07:42:52.124Z,9.13
2023-04-13T07:45:21.535Z,5.80
2023-04-13T07:47:49.511Z,9.40
2023-04-13T07:50:18.006Z,9.03
2023-04-13T07:52:45.794Z,7.07
2023-04-13T07:55:13.623Z,6.90
2023-04-13T07:57:41.454Z,5.87
2023-04-13T08:00:10.480Z,6.50
2023-04-13T08:02:39.725Z,9.27
2023-04-13T08:05:09.102Z,8.27
2023-04-13T08:07:36.944Z,10.00
2023-04-13T08:10:05.057Z,7.87
2023-04-13T08:12:32.779Z,8.23
2023-04-13T08:15:00.520Z,8.77
2023-04-13T08:17:28.314Z,6.13
2023-04-13T08:19:57.458Z,7.07
2023-04-13T08:22:25.304Z,7.87
2023-04-13T08:24:53.222Z,8.00
2023-04-13T08:27:21.047Z,8.03
2023-04-13T08:29:48.786Z,7.27
2023-04-13T08:32:16.790Z,5.40
2023-04-13T08:34:44.634Z,7.13
2023-04-13T08:37:15.965Z,7.23
2023-04-13T08:39:43.697Z,8.03
2023-04-13T08:42:11.442Z,5.60
2023-04-13T08:44:42.839Z,9.30
2023-04-13T08:47:11.008Z,7.23
2023-04-13T08:49:40.229Z,17.60
2023-04-13T08:52:10.488Z,7.27
2023-04-13T08:54:39.581Z,8.20
2023-04-13T08:57:08.251Z,7.07
2023-04-13T08:59:41.372Z,5.87
2023-04-13T09:02:09.807Z,6.07
2023-04-13T09:04:39.465Z,7.20
2023-04-13T09:07:12.964Z,8.70
2023-04-13T09:09:43.913Z,7.70
2023-04-13T09:12:11.656Z,7.67
2023-04-13T09:14:40.046Z,8.23
2023-04-13T09:17:07.873Z,10.00
2023-04-13T09:19:35.888Z,5.80
2023-04-13T09:22:13.596Z,7.70
2023-04-13T09:24:42.990Z,7.43
2023-04-13T09:27:18.892Z,10.20
2023-04-13T09:29:51.522Z,7.77
2023-04-13T09:32:23.677Z,6.50
2023-04-13T09:35:04.635Z,8.77
2023-04-13T09:37:32.886Z,7.90
2023-04-13T09:40:11.323Z,7.13
2023-04-13T09:42:40.089Z,5.17
2023-04-13T09:45:08.849Z,6.10
2023-04-13T09:47:38.273Z,6.27
2023-04-13T09:50:16.679Z,6.30
2023-04-13T09:52:45.040Z,5.10
2023-04-13T09:55:18.532Z,6.93
2023-04-13T09:57:46.547Z,4.80
2023-04-13T10:00:20.776Z,6.97
2023-04-13T10:02:50.802Z,7.60
2023-04-13T10:05:19.862Z,6.40
2023-04-13T10:07:49.436Z,5.20
2023-04-13T10:10:19.439Z,6.70
2023-04-13T10:12:55.685Z,6.40
2023-04-13T10:15:39.456Z,7.33
2023-04-13T10:18:17.376Z,6.40
2023-04-13T10:20:46.314Z,5.20
2023-04-13T10:23:14.621Z,4.80
2023-04-13T10:25:52.017Z,5.03
2023-04-13T10:28:20.352Z,5.53
2023-04-13T10:30:51.793Z,5.33
2023-04-13T10:33:20.571Z,7.93
2023-04-13T10:35:58.049Z,6.93
2023-04-13T10:38:27.564Z,7.80
2023-04-13T10:40:58.527Z,6.00
2023-04-13T10:43:31.472Z,6.40
2023-04-13T10:46:09.330Z,6.77
2023-04-13T10:48:37.374Z,6.73
2023-04-13T10:51:05.334Z,5.80
2023-04-13T10:53:34.883Z,5.67
2023-04-13T10:56:05.150Z,5.57
2023-04-13T10:58:33.438Z,5.27
2023-04-13T11:01:03.213Z,5.90
2023-04-13T11:03:31.150Z,6.17
2023-04-13T11:06:00.703Z,5.83
2023-04-13T11:08:29.274Z,6.40
2023-04-13T11:10:58.331Z,4.77
2023-04-13T11:13:29.085Z,6.57
2023-04-13T11:16:03.776Z,4.87
2023-04-13T11:18:32.127Z,5.33
2023-04-13T11:20:59.940Z,5.60
2023-04-13T11:23:28.787Z,5.00
2023-04-13T11:25:58.390Z,5.00
2023-04-13T11:28:39.866Z,6.07
2023-04-13T11:31:11.402Z,5.33
2023-04-13T11:33:41.027Z,4.80
2023-04-13T11:36:11.645Z,5.87
2023-04-13T11:38:40.873Z,6.27
2023-04-13T11:41:15.612Z,5.83
2023-04-13T11:43:48.307Z,5.60
2023-04-13T11:46:23.104Z,6.63
2023-04-13T11:48:52.261Z,6.77
2023-04-13T11:51:20.489Z,5.10
2023-04-13T11:53:48.666Z,6.27
2023-04-13T11:56:16.475Z,7.37
2023-04-13T11:58:45.832Z,4.83
2023-04-13T12:01:23.346Z,7.03
2023-04-13T12:04:04.838Z,4.90
2023-04-13T12:06:44.257Z,4.90
2023-04-13T12:09:15.001Z,5.33
2023-04-13T12:11:50.118Z,5.90
2023-04-13T12:14:48.767Z,5.50
2023-04-13T12:17:37.554Z,5.03
2023-04-13T12:20:03.846Z,5.60
2023-04-13T12:23:02.445Z,5.73
2023-04-13T12:25:35.711Z,6.45
2023-04-13T12:28:04.589Z,6.13
2023-04-13T12:30:34.156Z,8.13
2023-04-13T12:33:02.012Z,5.80
2023-04-13T12:35:29.776Z,5.17
2023-04-13T12:37:57.489Z,5.07
2023-04-13T12:40:25.200Z,6.10
2023-04-13T12:42:53.027Z,5.27
2023-04-13T12:45:21.918Z,4.80
2023-04-13T12:47:51.268Z,4.70
2023-04-13T12:50:19.030Z,6.20
2023-04-13T12:52:46.739Z,5.17
2023-04-13T12:55:14.453Z,4.40
2023-04-13T12:57:42.269Z,4.80
2023-04-13T13:00:12.138Z,4.20
2023-04-13T13:02:40.114Z,4.30
2023-04-13T13:05:10.213Z,8.00
2023-04-13T13:07:37.944Z,4.60
2023-04-13T13:10:15.103Z,5.47
2023-04-13T13:12:53.968Z,4.93
2023-04-13T13:15:21.827Z,4.25
2023-04-13T13:17:49.702Z,4.60
2023-04-13T13:20:18.956Z,4.30
2023-04-13T13:22:48.031Z,4.70
2023-04-13T13:25:16.178Z,5.88
2023-04-13T13:30:15.408Z,5.10
2023-04-13T13:32:43.652Z,4.50
2023-04-13T13:35:17.681Z,5.63
2023-04-13T13:37:49.408Z,4.40
2023-04-13T13:43:33.357Z,5.27
2023-04-13T13:46:01.165Z,5.37
2023-04-13T13:48:29.067Z,6.10
2023-04-13T13:50:56.796Z,4.40
2023-04-13T13:53:25.877Z,5.23
2023-04-13T13:55:55.409Z,4.67
2023-04-13T13:58:23.093Z,5.00
2023-04-13T14:00:51.202Z,4.80
2023-04-13T14:03:19.572Z,4.90
2023-04-13T14:05:47.631Z,4.80
2023-04-13T14:08:15.370Z,6.30
2023-04-13T14:10:48.432Z,4.70
2023-04-13T14:13:16.881Z,4.70
2023-04-13T14:15:44.757Z,4.80
2023-04-13T14:18:12.530Z,4.50
2023-04-13T14:20:40.682Z,4.50
2023-04-13T14:23:09.290Z,4.73
2023-04-13T14:25:38.117Z,5.30
2023-04-13T14:28:08.958Z,4.70
2023-04-13T14:30:36.805Z,4.53
2023-04-13T14:33:05.699Z,4.33
2023-04-13T14:35:33.590Z,5.03
2023-04-13T14:38:01.911Z,4.37
2023-04-13T14:40:29.849Z,4.50
2023-04-13T14:42:57.727Z,4.40
2023-04-13T14:45:26.791Z,4.50
2023-04-13T14:47:54.693Z,5.30
2023-04-13T14:50:22.538Z,5.47
2023-04-13T14:52:50.360Z,5.63
2023-04-13T14:55:18.615Z,4.60
2023-04-13T14:57:47.974Z,5.67
2023-04-13T15:00:21.337Z,4.47
2023-04-13T15:02:52.456Z,4.33
2023-04-13T15:05:20.998Z,5.00
2023-04-13T15:07:50.754Z,4.40
2023-04-13T15:10:19.165Z,11.50
2023-04-13T15:12:48.113Z,5.17
2023-04-13T15:15:15.901Z,5.00
2023-04-13T15:17:43.745Z,4.33
2023-04-13T15:20:13.204Z,4.60
2023-04-13T15:22:40.997Z,4.93
2023-04-13T15:25:09.258Z,5.70
2023-04-13T15:27:37.226Z,6.33
2023-04-13T15:30:07.449Z,4.40
2023-04-13T15:32:36.109Z,4.53
2023-04-13T15:35:04.108Z,5.30
2023-04-13T15:37:33.189Z,4.80
2023-04-13T15:40:01.389Z,4.80
2023-04-13T15:42:29.512Z,5.50
2023-04-13T15:44:57.321Z,4.70
2023-04-13T15:47:25.113Z,4.87
2023-04-13T15:49:52.865Z,4.10
2023-04-13T15:52:20.623Z,5.33
2023-04-13T15:54:49.676Z,4.93
2023-04-13T15:57:17.674Z,4.23
2023-04-13T15:59:45.567Z,4.00
2023-04-13T16:02:13.538Z,4.27
2023-04-13T16:04:41.588Z,5.03
2023-04-13T16:07:14.143Z,4.40
2023-04-13T16:09:44.621Z,4.40
2023-04-13T16:12:13.871Z,4.57
2023-04-13T16:14:44.970Z,4.60
2023-04-13T16:17:14.739Z,4.30
2023-04-13T16:19:46.869Z,7.70
2023-04-13T16:22:17.033Z,4.20
2023-04-13T16:24:44.807Z,4.57
2023-04-13T16:27:14.483Z,3.97
2023-04-13T16:29:43.379Z,5.07
2023-04-13T16:32:11.098Z,4.93
2023-04-13T16:34:38.865Z,5.17
2023-04-13T16:37:07.420Z,4.50
2023-04-13T16:39:35.156Z,5.10
2023-04-13T16:42:03.239Z,5.43
2023-04-13T16:44:33.197Z,4.50
2023-04-13T16:47:01.042Z,4.70
2023-04-13T16:49:28.829Z,6.13
2023-04-13T16:51:56.639Z,4.60
2023-04-13T16:54:25.067Z,4.63
2023-04-13T16:56:52.890Z,4.97
2023-04-13T16:59:21.832Z,4.73
2023-04-13T17:01:50.947Z,5.87
2023-04-13T17:04:18.821Z,4.30
2023-04-13T17:06:47.358Z,4.60
2023-04-13T17:09:15.109Z,4.93
2023-04-13T17:11:42.981Z,4.60
2023-04-13T17:14:10.727Z,4.63
2023-04-13T17:16:38.468Z,4.77
2023-04-13T17:19:07.525Z,5.03
2023-04-13T17:21:35.233Z,8.77
2023-04-13T17:24:03.010Z,6.17
2023-04-13T17:26:30.834Z,5.10
2023-04-13T17:28:58.866Z,5.03
2023-04-13T17:31:27.095Z,5.28
2023-04-13T17:33:54.801Z,7.83
2023-04-13T17:36:23.907Z,12.63
2023-04-13T17:38:51.808Z,5.67
2023-04-13T17:41:21.593Z,4.70
2023-04-13T17:43:49.300Z,4.83
2023-04-13T17:46:17.081Z,4.77
2023-04-13T17:48:44.930Z,4.70
2023-04-13T17:51:12.647Z,4.70
2023-04-13T17:53:41.854Z,6.60
2023-04-13T17:56:15.205Z,6.60
2023-04-13T17:58:43.131Z,5.10
2023-04-13T18:01:11.925Z,4.90
2023-04-13T18:03:40.094Z,9.10
2023-04-13T18:06:08.351Z,4.97
2023-04-13T18:08:36.196Z,5.77
2023-04-13T18:11:05.334Z,5.50
2023-04-13T18:13:34.314Z,5.00
2023-04-13T18:16:02.208Z,5.10
2023-04-13T18:18:30.198Z,5.77
2023-04-13T18:20:57.934Z,5.20
2023-04-13T18:23:25.831Z,6.20
2023-04-13T18:25:53.736Z,5.00
2023-04-13T18:28:22.792Z,5.93
2023-04-13T18:30:50.559Z,4.80
2023-04-13T18:33:18.407Z,5.30
2023-04-13T18:35:46.564Z,5.60
2023-04-13T18:38:14.361Z,7.17
2023-04-13T18:40:42.149Z,4.90
2023-04-13T18:43:10.123Z,4.80
2023-04-13T18:45:39.410Z,5.50
2023-04-13T18:48:09.429Z,5.20
2023-04-13T18:50:37.584Z,5.40
2023-04-13T18:53:05.672Z,4.77
2023-04-13T18:55:33.448Z,4.90
2023-04-13T18:58:01.246Z,5.87
2023-04-13T19:00:28.975Z,5.17
2023-04-13T19:02:58.314Z,6.73
2023-04-13T19:05:27.737Z,5.30
2023-04-13T19:07:58.654Z,4.83
2023-04-13T19:10:26.636Z,5.53
2023-04-13T19:12:54.578Z,6.00
2023-04-13T19:15:22.649Z,6.17
2023-04-13T19:17:51.952Z,5.60
2023-04-13T19:20:22.929Z,6.30
2023-04-13T19:22:51.421Z,6.67
2023-04-13T19:25:20.529Z,5.57
2023-04-13T19:27:49.960Z,5.90
2023-04-13T19:30:19.160Z,4.90
2023-04-13T19:32:49.024Z,6.05
2023-04-13T19:35:17.348Z,4.77
2023-04-13T19:37:46.960Z,11.53
2023-04-13T19:40:15.314Z,6.83
2023-04-13T19:42:45.075Z,5.97
2023-04-13T19:45:14.396Z,6.13
2023-04-13T19:47:42.856Z,7.87
2023-04-13T19:50:12.448Z,9.63
2023-04-13T19:52:41.330Z,5.90
2023-04-13T19:55:11.966Z,5.17
2023-04-13T19:57:42.741Z,5.27
2023-04-13T20:00:18.903Z,7.27
2023-04-13T20:02:49.474Z,5.00
2023-04-13T20:05:18.907Z,6.13
2023-04-13T20:07:46.852Z,7.40
2023-04-13T20:10:15.917Z,5.47
2023-04-13T20:12:43.666Z,5.00
2023-04-13T20:15:12.146Z,5.30
2023-04-13T20:17:39.982Z,5.63
2023-04-13T20:20:10.525Z,5.20
2023-04-13T20:22:38.256Z,5.40
2023-04-13T20:25:06.944Z,5.70
2023-04-13T20:27:37.742Z,5.87
2023-04-13T20:30:06.245Z,4.93
2023-04-13T20:32:34.180Z,5.93
2023-04-13T20:35:02.741Z,7.00
2023-04-13T20:37:30.482Z,6.07
2023-04-13T20:39:58.211Z,6.93
2023-04-13T20:42:26.136Z,5.53
2023-04-13T20:44:57.349Z,5.80
2023-04-13T20:47:27.395Z,5.57
2023-04-13T20:49:57.296Z,5.60
2023-04-13T20:52:25.814Z,6.27
2023-04-13T20:54:54.492Z,7.00
2023-04-13T20:57:22.308Z,6.37
2023-04-13T20:59:51.640Z,6.30
2023-04-13T21:02:21.134Z,8.60
2023-04-13T21:04:49.054Z,6.03
2023-04-13T21:07:16.930Z,5.57
2023-04-13T21:09:46.860Z,5.23
2023-04-13T21:12:14.638Z,5.77
2023-04-13T21:14:42.406Z,6.20
2023-04-13T21:17:10.152Z,6.63
2023-04-13T21:19:39.158Z,6.90
2023-04-13T21:22:06.978Z,6.50
2023-04-13T21:24:34.744Z,5.90
2023-04-13T21:27:02.856Z,6.00
2023-04-13T21:29:30.705Z,5.97
2023-04-13T21:31:58.993Z,6.83
2023-04-13T21:34:27.339Z,7.97
2023-04-13T21:36:56.518Z,6.70
2023-04-13T21:39:24.376Z,6.90
2023-04-13T21:41:52.118Z,6.23
2023-04-13T21:44:29.381Z,9.83
2023-04-13T21:46:58.356Z,7.10
2023-04-13T21:49:29.317Z,6.17
2023-04-13T21:51:58.386Z,7.33
2023-04-13T21:54:26.213Z,6.07
2023-04-13T21:56:54.071Z,5.60
2023-04-13T21:59:24.070Z,7.40
2023-04-13T22:01:51.834Z,6.87
2023-04-13T22:04:19.754Z,6.00
2023-04-13T22:06:47.641Z,5.87
2023-04-13T22:09:16.851Z,6.10
2023-04-13T22:11:44.587Z,5.80
2023-04-13T22:14:14.706Z,5.93
2023-04-13T22:16:42.466Z,6.13
2023-04-13T22:19:10.582Z,6.67
2023-04-13T22:21:38.671Z,6.07
2023-04-13T22:24:06.709Z,8.37
2023-04-13T22:26:37.994Z,6.50
2023-04-13T22:29:05.794Z,6.03
2023-04-13T22:31:33.567Z,6.00
2023-04-13T22:34:01.452Z,7.23
2023-04-13T22:36:29.199Z,5.73
2023-04-13T22:38:56.886Z,8.73
2023-04-13T22:41:24.665Z,7.53
2023-04-13T22:43:53.704Z,6.83
2023-04-13T22:46:21.418Z,6.53
2023-04-13T22:48:49.157Z,7.63
2023-04-13T22:51:16.878Z,5.73
2023-04-13T22:53:44.598Z,6.63
2023-04-13T22:56:12.295Z,6.40
2023-04-13T22:58:39.998Z,6.50
2023-04-13T23:01:09.036Z,12.87
2023-04-13T23:03:36.877Z,6.47
2023-04-13T23:06:05.759Z,6.53
2023-04-13T23:08:33.670Z,6.40
2023-04-13T23:11:08.767Z,8.40
2023-04-13T23:13:36.731Z,9.80
2023-04-13T23:16:05.821Z,7.20
2023-04-13T23:18:35.037Z,7.27
2023-04-13T23:21:10.113Z,8.70
2023-04-13T23:23:37.912Z,9.40
2023-04-13T23:26:06.073Z,8.03
2023-04-13T23:28:34.133Z,6.67
2023-04-13T23:31:05.564Z,7.50
2023-04-13T23:33:34.707Z,6.90
2023-04-13T23:36:03.306Z,8.27
2023-04-13T23:38:31.260Z,8.30
2023-04-13T23:40:59.447Z,6.90
2023-04-13T23:43:27.142Z,8.77
2023-04-13T23:45:55.262Z,7.30
2023-04-13T23:48:24.516Z,6.87
2023-04-13T23:50:54.026Z,7.63
2023-04-13T23:53:21.804Z,7.10
2023-04-13T23:55:49.500Z,7.43
2023-04-13T23:58:17.218Z,9.77
